sensor_id;sensor_type;location;lat;lon;timestamp;temperature;humidity
21169;DHT22;10742;51.816;8.662;2022-12-20T00:00:36;11.90;94.40
21169;DHT22;10742;51.816;8.662;2022-12-20T00:03:39;11.90;94.30
21169;DHT22;10742;51.816;8.662;2022-12-20T00:06:42;11.90;94.30
21169;DHT22;10742;51.816;8.662;2022-12-20T00:09:45;11.90;94.30
21169;DHT22;10742;51.816;8.662;2022-12-20T00:12:47;11.80;94.20
21169;DHT22;10742;51.816;8.662;2022-12-20T00:15:50;11.80;94.20
21169;DHT22;10742;51.816;8.662;2022-12-20T00:18:57;11.80;94.20
21169;DHT22;10742;51.816;8.662;2022-12-20T00:21:59;11.70;94.20
21169;DHT22;10742;51.816;8.662;2022-12-20T00:25:03;11.70;94.20
21169;DHT22;10742;51.816;8.662;2022-12-20T00:28:06;11.70;94.60
21169;DHT22;10742;51.816;8.662;2022-12-20T00:31:10;11.70;94.40
21169;DHT22;10742;51.816;8.662;2022-12-20T00:34:13;11.70;94.50
21169;DHT22;10742;51.816;8.662;2022-12-20T00:37:17;11.70;94.50
21169;DHT22;10742;51.816;8.662;2022-12-20T00:40:19;11.60;94.50
21169;DHT22;10742;51.816;8.662;2022-12-20T00:43:22;11.60;94.70
21169;DHT22;10742;51.816;8.662;2022-12-20T00:46:25;11.60;94.90
21169;DHT22;10742;51.816;8.662;2022-12-20T00:49:28;11.70;95.20
21169;DHT22;10742;51.816;8.662;2022-12-20T00:52:31;11.70;95.30
21169;DHT22;10742;51.816;8.662;2022-12-20T00:55:33;11.70;95.50
21169;DHT22;10742;51.816;8.662;2022-12-20T00:58:37;11.70;95.70
21169;DHT22;10742;51.816;8.662;2022-12-20T01:01:41;11.80;96.00
21169;DHT22;10742;51.816;8.662;2022-12-20T01:04:43;11.90;96.00
21169;DHT22;10742;51.816;8.662;2022-12-20T01:07:46;12.00;96.10
21169;DHT22;10742;51.816;8.662;2022-12-20T01:11:03;12.00;96.10
21169;DHT22;10742;51.816;8.662;2022-12-20T01:14:12;12.10;96.50
21169;DHT22;10742;51.816;8.662;2022-12-20T01:17:15;12.20;96.30
21169;DHT22;10742;51.816;8.662;2022-12-20T01:20:17;12.30;96.20
21169;DHT22;10742;51.816;8.662;2022-12-20T01:23:20;12.30;96.20
21169;DHT22;10742;51.816;8.662;2022-12-20T01:26:25;12.40;96.10
21169;DHT22;10742;51.816;8.662;2022-12-20T01:29:28;12.50;96.10
21169;DHT22;10742;51.816;8.662;2022-12-20T01:32:31;12.50;96.00
21169;DHT22;10742;51.816;8.662;2022-12-20T01:35:34;12.60;95.90
21169;DHT22;10742;51.816;8.662;2022-12-20T01:38:37;12.60;95.80
21169;DHT22;10742;51.816;8.662;2022-12-20T01:41:42;12.60;95.70
21169;DHT22;10742;51.816;8.662;2022-12-20T01:47:47;12.60;95.70
21169;DHT22;10742;51.816;8.662;2022-12-20T01:50:51;12.70;95.80
21169;DHT22;10742;51.816;8.662;2022-12-20T01:53:59;12.70;95.80
21169;DHT22;10742;51.816;8.662;2022-12-20T01:57:08;12.70;95.80
21169;DHT22;10742;51.816;8.662;2022-12-20T02:00:13;12.70;95.80
21169;DHT22;10742;51.816;8.662;2022-12-20T02:03:17;12.70;95.80
21169;DHT22;10742;51.816;8.662;2022-12-20T02:06:22;12.70;95.80
21169;DHT22;10742;51.816;8.662;2022-12-20T02:09:26;12.70;95.70
21169;DHT22;10742;51.816;8.662;2022-12-20T02:12:41;12.80;95.70
21169;DHT22;10742;51.816;8.662;2022-12-20T02:15:55;12.80;95.70
21169;DHT22;10742;51.816;8.662;2022-12-20T02:19:14;12.80;95.50
21169;DHT22;10742;51.816;8.662;2022-12-20T02:22:42;12.70;95.50
21169;DHT22;10742;51.816;8.662;2022-12-20T02:26:16;12.70;95.50
21169;DHT22;10742;51.816;8.662;2022-12-20T02:29:29;12.70;95.60
21169;DHT22;10742;51.816;8.662;2022-12-20T02:32:43;12.70;95.50
21169;DHT22;10742;51.816;8.662;2022-12-20T02:35:48;12.70;95.60
21169;DHT22;10742;51.816;8.662;2022-12-20T02:38:51;12.60;95.50
21169;DHT22;10742;51.816;8.662;2022-12-20T02:42:14;12.60;95.50
21169;DHT22;10742;51.816;8.662;2022-12-20T02:45:20;12.60;95.70
21169;DHT22;10742;51.816;8.662;2022-12-20T02:48:27;12.60;95.70
21169;DHT22;10742;51.816;8.662;2022-12-20T02:51:32;12.60;95.60
21169;DHT22;10742;51.816;8.662;2022-12-20T02:54:36;12.60;95.60
21169;DHT22;10742;51.816;8.662;2022-12-20T02:58:03;12.60;95.70
21169;DHT22;10742;51.816;8.662;2022-12-20T03:01:42;12.60;95.70
21169;DHT22;10742;51.816;8.662;2022-12-20T03:05:04;12.60;95.80
21169;DHT22;10742;51.816;8.662;2022-12-20T03:08:26;12.60;95.70
21169;DHT22;10742;51.816;8.662;2022-12-20T03:11:48;12.60;95.60
21169;DHT22;10742;51.816;8.662;2022-12-20T03:14:51;12.60;95.60
21169;DHT22;10742;51.816;8.662;2022-12-20T03:17:54;12.60;95.70
21169;DHT22;10742;51.816;8.662;2022-12-20T03:20:57;12.60;95.70
21169;DHT22;10742;51.816;8.662;2022-12-20T03:23:59;12.60;95.70
21169;DHT22;10742;51.816;8.662;2022-12-20T03:27:02;12.60;95.70
21169;DHT22;10742;51.816;8.662;2022-12-20T03:30:06;12.60;95.70
21169;DHT22;10742;51.816;8.662;2022-12-20T03:33:11;12.70;96.10
21169;DHT22;10742;51.816;8.662;2022-12-20T03:36:15;12.70;95.70
21169;DHT22;10742;51.816;8.662;2022-12-20T03:39:18;12.70;95.80
21169;DHT22;10742;51.816;8.662;2022-12-20T03:42:21;12.70;95.80
21169;DHT22;10742;51.816;8.662;2022-12-20T03:45:23;12.70;95.70
21169;DHT22;10742;51.816;8.662;2022-12-20T03:48:26;12.80;95.70
21169;DHT22;10742;51.816;8.662;2022-12-20T03:51:30;12.80;95.60
21169;DHT22;10742;51.816;8.662;2022-12-20T03:54:33;12.80;95.50
21169;DHT22;10742;51.816;8.662;2022-12-20T03:57:43;12.70;95.40
21169;DHT22;10742;51.816;8.662;2022-12-20T04:00:58;12.70;95.30
21169;DHT22;10742;51.816;8.662;2022-12-20T04:04:14;12.70;95.20
21169;DHT22;10742;51.816;8.662;2022-12-20T04:07:18;12.70;95.20
21169;DHT22;10742;51.816;8.662;2022-12-20T04:10:21;12.60;95.40
21169;DHT22;10742;51.816;8.662;2022-12-20T04:13:24;12.60;95.30
21169;DHT22;10742;51.816;8.662;2022-12-20T04:16:28;12.60;95.30
21169;DHT22;10742;51.816;8.662;2022-12-20T04:19:31;12.60;95.40
21169;DHT22;10742;51.816;8.662;2022-12-20T04:22:34;12.60;95.40
21169;DHT22;10742;51.816;8.662;2022-12-20T04:25:39;12.60;95.40
21169;DHT22;10742;51.816;8.662;2022-12-20T04:28:43;12.60;95.40
21169;DHT22;10742;51.816;8.662;2022-12-20T04:31:47;12.60;95.40
21169;DHT22;10742;51.816;8.662;2022-12-20T04:34:50;12.60;95.40
21169;DHT22;10742;51.816;8.662;2022-12-20T04:37:54;12.60;95.40
21169;DHT22;10742;51.816;8.662;2022-12-20T04:40:57;12.60;95.40
21169;DHT22;10742;51.816;8.662;2022-12-20T04:44:04;12.60;95.30
21169;DHT22;10742;51.816;8.662;2022-12-20T04:47:11;12.60;95.20
21169;DHT22;10742;51.816;8.662;2022-12-20T04:50:14;12.60;95.20
21169;DHT22;10742;51.816;8.662;2022-12-20T04:53:18;12.60;95.20
21169;DHT22;10742;51.816;8.662;2022-12-20T04:56:41;12.60;95.20
21169;DHT22;10742;51.816;8.662;2022-12-20T04:59:52;12.60;95.20
21169;DHT22;10742;51.816;8.662;2022-12-20T05:02:55;12.60;95.20
21169;DHT22;10742;51.816;8.662;2022-12-20T05:06:00;12.50;95.20
21169;DHT22;10742;51.816;8.662;2022-12-20T05:09:03;12.60;95.20
21169;DHT22;10742;51.816;8.662;2022-12-20T05:12:09;12.50;95.20
21169;DHT22;10742;51.816;8.662;2022-12-20T05:15:13;12.50;95.30
21169;DHT22;10742;51.816;8.662;2022-12-20T05:18:18;12.50;95.30
21169;DHT22;10742;51.816;8.662;2022-12-20T05:21:27;12.50;95.40
21169;DHT22;10742;51.816;8.662;2022-12-20T05:24:49;12.40;95.40
21169;DHT22;10742;51.816;8.662;2022-12-20T05:28:14;12.50;95.40
21169;DHT22;10742;51.816;8.662;2022-12-20T05:31:19;12.50;95.30
21169;DHT22;10742;51.816;8.662;2022-12-20T05:34:23;12.40;95.30
21169;DHT22;10742;51.816;8.662;2022-12-20T05:37:28;12.40;95.30
21169;DHT22;10742;51.816;8.662;2022-12-20T05:40:40;12.40;95.40
21169;DHT22;10742;51.816;8.662;2022-12-20T05:43:47;12.30;95.30
21169;DHT22;10742;51.816;8.662;2022-12-20T05:46:51;12.40;95.40
21169;DHT22;10742;51.816;8.662;2022-12-20T05:50:19;12.40;95.40
21169;DHT22;10742;51.816;8.662;2022-12-20T05:54:00;12.30;95.40
21169;DHT22;10742;51.816;8.662;2022-12-20T05:57:47;12.30;95.40
21169;DHT22;10742;51.816;8.662;2022-12-20T06:01:15;12.30;95.50
21169;DHT22;10742;51.816;8.662;2022-12-20T06:04:37;12.30;95.50
21169;DHT22;10742;51.816;8.662;2022-12-20T06:08:12;12.20;95.50
21169;DHT22;10742;51.816;8.662;2022-12-20T06:11:34;12.20;95.50
21169;DHT22;10742;51.816;8.662;2022-12-20T06:15:00;12.20;95.50
21169;DHT22;10742;51.816;8.662;2022-12-20T06:18:18;12.20;95.50
21169;DHT22;10742;51.816;8.662;2022-12-20T06:21:23;12.20;95.60
21169;DHT22;10742;51.816;8.662;2022-12-20T06:24:28;12.10;95.60
21169;DHT22;10742;51.816;8.662;2022-12-20T06:27:31;12.10;95.60
21169;DHT22;10742;51.816;8.662;2022-12-20T06:30:57;12.10;95.70
21169;DHT22;10742;51.816;8.662;2022-12-20T06:34:26;12.10;95.80
21169;DHT22;10742;51.816;8.662;2022-12-20T06:37:29;12.10;95.70
21169;DHT22;10742;51.816;8.662;2022-12-20T06:40:33;12.10;95.60
21169;DHT22;10742;51.816;8.662;2022-12-20T06:43:36;12.00;95.60
21169;DHT22;10742;51.816;8.662;2022-12-20T06:46:39;12.10;95.60
21169;DHT22;10742;51.816;8.662;2022-12-20T06:49:42;12.00;95.60
21169;DHT22;10742;51.816;8.662;2022-12-20T06:52:54;12.00;95.70
21169;DHT22;10742;51.816;8.662;2022-12-20T06:55:59;12.00;95.70
21169;DHT22;10742;51.816;8.662;2022-12-20T06:59:02;12.00;95.70
21169;DHT22;10742;51.816;8.662;2022-12-20T07:02:05;12.00;95.70
21169;DHT22;10742;51.816;8.662;2022-12-20T07:05:09;11.90;95.70
21169;DHT22;10742;51.816;8.662;2022-12-20T07:08:12;11.90;95.80
21169;DHT22;10742;51.816;8.662;2022-12-20T07:11:15;11.90;95.80
21169;DHT22;10742;51.816;8.662;2022-12-20T07:14:18;11.90;95.90
21169;DHT22;10742;51.816;8.662;2022-12-20T07:17:21;11.90;95.90
21169;DHT22;10742;51.816;8.662;2022-12-20T07:20:24;11.90;96.00
21169;DHT22;10742;51.816;8.662;2022-12-20T07:23:27;11.80;96.00
21169;DHT22;10742;51.816;8.662;2022-12-20T07:26:30;11.80;96.00
21169;DHT22;10742;51.816;8.662;2022-12-20T07:29:32;11.80;96.00
21169;DHT22;10742;51.816;8.662;2022-12-20T07:32:35;11.80;96.00
21169;DHT22;10742;51.816;8.662;2022-12-20T07:35:38;11.80;96.00
21169;DHT22;10742;51.816;8.662;2022-12-20T07:38:40;11.80;96.10
21169;DHT22;10742;51.816;8.662;2022-12-20T07:41:43;11.80;96.10
21169;DHT22;10742;51.816;8.662;2022-12-20T07:44:50;11.80;96.10
21169;DHT22;10742;51.816;8.662;2022-12-20T07:47:53;11.90;96.20
21169;DHT22;10742;51.816;8.662;2022-12-20T07:51:08;11.90;96.20
21169;DHT22;10742;51.816;8.662;2022-12-20T07:54:16;11.90;96.30
21169;DHT22;10742;51.816;8.662;2022-12-20T07:57:36;11.90;96.50
21169;DHT22;10742;51.816;8.662;2022-12-20T08:00:42;11.90;96.20
21169;DHT22;10742;51.816;8.662;2022-12-20T08:03:48;11.90;96.10
21169;DHT22;10742;51.816;8.662;2022-12-20T08:06:54;11.90;96.20
21169;DHT22;10742;51.816;8.662;2022-12-20T08:09:58;12.00;96.20
21169;DHT22;10742;51.816;8.662;2022-12-20T08:13:01;12.00;96.10
21169;DHT22;10742;51.816;8.662;2022-12-20T08:16:05;12.00;96.10
21169;DHT22;10742;51.816;8.662;2022-12-20T08:19:09;12.00;96.20
21169;DHT22;10742;51.816;8.662;2022-12-20T08:22:12;12.00;96.10
21169;DHT22;10742;51.816;8.662;2022-12-20T08:25:15;12.10;96.20
21169;DHT22;10742;51.816;8.662;2022-12-20T08:28:18;12.10;96.20
21169;DHT22;10742;51.816;8.662;2022-12-20T08:31:22;12.10;96.20
21169;DHT22;10742;51.816;8.662;2022-12-20T08:34:25;12.10;96.20
21169;DHT22;10742;51.816;8.662;2022-12-20T08:37:28;12.20;96.30
21169;DHT22;10742;51.816;8.662;2022-12-20T08:40:31;12.20;96.20
21169;DHT22;10742;51.816;8.662;2022-12-20T08:43:33;12.30;96.20
21169;DHT22;10742;51.816;8.662;2022-12-20T08:46:36;12.30;96.20
21169;DHT22;10742;51.816;8.662;2022-12-20T08:49:39;12.30;96.20
21169;DHT22;10742;51.816;8.662;2022-12-20T08:52:45;12.40;96.20
21169;DHT22;10742;51.816;8.662;2022-12-20T08:55:48;12.40;96.10
21169;DHT22;10742;51.816;8.662;2022-12-20T08:58:50;12.40;96.00
21169;DHT22;10742;51.816;8.662;2022-12-20T09:01:53;12.50;96.10
21169;DHT22;10742;51.816;8.662;2022-12-20T09:04:56;12.50;96.00
21169;DHT22;10742;51.816;8.662;2022-12-20T09:07:58;12.50;96.00
21169;DHT22;10742;51.816;8.662;2022-12-20T09:11:08;12.60;96.00
21169;DHT22;10742;51.816;8.662;2022-12-20T09:14:11;12.60;96.00
21169;DHT22;10742;51.816;8.662;2022-12-20T09:17:14;12.60;95.90
21169;DHT22;10742;51.816;8.662;2022-12-20T09:20:16;12.70;95.80
21169;DHT22;10742;51.816;8.662;2022-12-20T09:23:19;12.70;95.80
21169;DHT22;10742;51.816;8.662;2022-12-20T09:26:23;12.80;95.80
21169;DHT22;10742;51.816;8.662;2022-12-20T09:29:25;12.80;95.70
21169;DHT22;10742;51.816;8.662;2022-12-20T09:32:30;12.80;95.70
21169;DHT22;10742;51.816;8.662;2022-12-20T09:35:33;12.90;95.70
21169;DHT22;10742;51.816;8.662;2022-12-20T09:38:36;12.90;95.60
21169;DHT22;10742;51.816;8.662;2022-12-20T09:41:40;12.90;95.60
21169;DHT22;10742;51.816;8.662;2022-12-20T09:44:44;12.90;95.50
21169;DHT22;10742;51.816;8.662;2022-12-20T09:47:47;12.90;95.50
21169;DHT22;10742;51.816;8.662;2022-12-20T10:01:19;13.00;95.70
21169;DHT22;10742;51.816;8.662;2022-12-20T10:04:44;13.00;95.40
21169;DHT22;10742;51.816;8.662;2022-12-20T10:12:20;13.00;95.40
21169;DHT22;10742;51.816;8.662;2022-12-20T10:22:27;13.20;95.30
21169;DHT22;10742;51.816;8.662;2022-12-20T10:25:34;13.20;95.30
21169;DHT22;10742;51.816;8.662;2022-12-20T10:28:37;13.20;95.30
21169;DHT22;10742;51.816;8.662;2022-12-20T10:31:40;13.30;95.30
21169;DHT22;10742;51.816;8.662;2022-12-20T10:38:04;13.30;95.10
21169;DHT22;10742;51.816;8.662;2022-12-20T10:41:15;13.40;95.10
21169;DHT22;10742;51.816;8.662;2022-12-20T10:44:27;13.40;95.00
21169;DHT22;10742;51.816;8.662;2022-12-20T10:50:36;13.40;94.90
21169;DHT22;10742;51.816;8.662;2022-12-20T10:57:00;13.50;94.80
21169;DHT22;10742;51.816;8.662;2022-12-20T11:00:05;13.50;94.80
21169;DHT22;10742;51.816;8.662;2022-12-20T11:03:17;13.60;94.80
21169;DHT22;10742;51.816;8.662;2022-12-20T11:06:29;13.60;94.80
21169;DHT22;10742;51.816;8.662;2022-12-20T11:09:52;13.60;94.70
21169;DHT22;10742;51.816;8.662;2022-12-20T11:13:01;13.60;94.60
21169;DHT22;10742;51.816;8.662;2022-12-20T11:16:04;13.70;94.60
21169;DHT22;10742;51.816;8.662;2022-12-20T11:33:23;13.80;94.40
21169;DHT22;10742;51.816;8.662;2022-12-20T11:36:39;13.80;94.30
21169;DHT22;10742;51.816;8.662;2022-12-20T11:39:59;13.90;94.50
21169;DHT22;10742;51.816;8.662;2022-12-20T11:43:34;13.90;94.50
21169;DHT22;10742;51.816;8.662;2022-12-20T11:54:03;13.90;94.30
21169;DHT22;10742;51.816;8.662;2022-12-20T11:57:17;14.00;94.40
21169;DHT22;10742;51.816;8.662;2022-12-20T12:00:22;14.00;94.40
21169;DHT22;10742;51.816;8.662;2022-12-20T12:03:31;14.10;94.50
21169;DHT22;10742;51.816;8.662;2022-12-20T12:06:45;14.10;94.30
21169;DHT22;10742;51.816;8.662;2022-12-20T12:10:03;14.10;94.30
21169;DHT22;10742;51.816;8.662;2022-12-20T12:13:16;14.10;94.20
21169;DHT22;10742;51.816;8.662;2022-12-20T12:16:33;14.20;94.20
21169;DHT22;10742;51.816;8.662;2022-12-20T12:19:41;14.20;94.20
21169;DHT22;10742;51.816;8.662;2022-12-20T12:22:46;14.20;94.20
21169;DHT22;10742;51.816;8.662;2022-12-20T12:25:50;14.20;94.20
21169;DHT22;10742;51.816;8.662;2022-12-20T12:28:59;14.30;94.20
21169;DHT22;10742;51.816;8.662;2022-12-20T12:32:10;14.30;94.20
21169;DHT22;10742;51.816;8.662;2022-12-20T12:39:00;14.30;94.10
21169;DHT22;10742;51.816;8.662;2022-12-20T12:45:41;14.40;94.00
21169;DHT22;10742;51.816;8.662;2022-12-20T12:49:28;14.40;94.00
21169;DHT22;10742;51.816;8.662;2022-12-20T12:52:35;14.40;94.10
21169;DHT22;10742;51.816;8.662;2022-12-20T12:55:44;14.40;94.00
21169;DHT22;10742;51.816;8.662;2022-12-20T13:08:47;14.40;94.00
21169;DHT22;10742;51.816;8.662;2022-12-20T13:11:54;14.40;93.90
21169;DHT22;10742;51.816;8.662;2022-12-20T13:21:31;14.40;94.00
21169;DHT22;10742;51.816;8.662;2022-12-20T13:24:57;14.40;93.90
21169;DHT22;10742;51.816;8.662;2022-12-20T13:34:54;14.50;94.10
21169;DHT22;10742;51.816;8.662;2022-12-20T13:41:35;14.50;94.20
21169;DHT22;10742;51.816;8.662;2022-12-20T13:44:45;14.60;94.40
21169;DHT22;10742;51.816;8.662;2022-12-20T13:47:54;14.60;94.30
21169;DHT22;10742;51.816;8.662;2022-12-20T13:50:58;14.70;94.40
21169;DHT22;10742;51.816;8.662;2022-12-20T13:54:03;14.70;94.50
21169;DHT22;10742;51.816;8.662;2022-12-20T13:57:07;14.80;94.40
21169;DHT22;10742;51.816;8.662;2022-12-20T14:00:17;14.80;94.40
21169;DHT22;10742;51.816;8.662;2022-12-20T14:03:24;14.90;94.30
21169;DHT22;10742;51.816;8.662;2022-12-20T14:06:27;14.90;94.40
21169;DHT22;10742;51.816;8.662;2022-12-20T14:09:34;14.90;94.30
21169;DHT22;10742;51.816;8.662;2022-12-20T14:12:41;15.00;94.30
21169;DHT22;10742;51.816;8.662;2022-12-20T14:15:49;15.00;94.30
21169;DHT22;10742;51.816;8.662;2022-12-20T14:23:38;15.10;94.20
21169;DHT22;10742;51.816;8.662;2022-12-20T14:26:44;15.20;94.20
21169;DHT22;10742;51.816;8.662;2022-12-20T14:29:49;15.20;94.20
21169;DHT22;10742;51.816;8.662;2022-12-20T14:32:54;15.20;94.20
21169;DHT22;10742;51.816;8.662;2022-12-20T14:39:29;15.20;94.20
21169;DHT22;10742;51.816;8.662;2022-12-20T14:42:35;15.20;94.10
21169;DHT22;10742;51.816;8.662;2022-12-20T14:45:39;15.30;94.20
21169;DHT22;10742;51.816;8.662;2022-12-20T14:48:42;15.30;94.20
21169;DHT22;10742;51.816;8.662;2022-12-20T14:51:45;15.30;94.20
21169;DHT22;10742;51.816;8.662;2022-12-20T14:58:30;15.30;94.20
21169;DHT22;10742;51.816;8.662;2022-12-20T15:01:33;15.30;94.20
21169;DHT22;10742;51.816;8.662;2022-12-20T15:04:39;15.30;94.40
21169;DHT22;10742;51.816;8.662;2022-12-20T15:07:42;15.40;94.40
21169;DHT22;10742;51.816;8.662;2022-12-20T15:14:31;15.50;94.10
21169;DHT22;10742;51.816;8.662;2022-12-20T15:17:36;15.50;94.00
21169;DHT22;10742;51.816;8.662;2022-12-20T15:20:40;15.60;94.10
21169;DHT22;10742;51.816;8.662;2022-12-20T15:23:47;15.50;94.00
21169;DHT22;10742;51.816;8.662;2022-12-20T15:26:50;15.50;94.10
21169;DHT22;10742;51.816;8.662;2022-12-20T15:29:54;15.50;94.10
21169;DHT22;10742;51.816;8.662;2022-12-20T15:32:57;15.50;94.20
21169;DHT22;10742;51.816;8.662;2022-12-20T15:35:59;15.40;94.20
21169;DHT22;10742;51.816;8.662;2022-12-20T15:39:02;15.40;94.30
21169;DHT22;10742;51.816;8.662;2022-12-20T15:42:19;15.40;94.40
21169;DHT22;10742;51.816;8.662;2022-12-20T15:45:22;15.30;94.60
21169;DHT22;10742;51.816;8.662;2022-12-20T15:48:25;15.30;94.60
21169;DHT22;10742;51.816;8.662;2022-12-20T15:54:35;15.20;94.70
21169;DHT22;10742;51.816;8.662;2022-12-20T15:57:39;15.20;94.80
21169;DHT22;10742;51.816;8.662;2022-12-20T16:00:42;15.10;94.80
21169;DHT22;10742;51.816;8.662;2022-12-20T16:03:45;15.10;94.80
21169;DHT22;10742;51.816;8.662;2022-12-20T16:06:49;15.10;94.90
21169;DHT22;10742;51.816;8.662;2022-12-20T16:09:52;15.00;94.90
21169;DHT22;10742;51.816;8.662;2022-12-20T16:12:55;15.00;94.90
21169;DHT22;10742;51.816;8.662;2022-12-20T16:15:58;15.00;94.90
21169;DHT22;10742;51.816;8.662;2022-12-20T16:19:02;15.00;95.10
21169;DHT22;10742;51.816;8.662;2022-12-20T16:22:20;14.90;95.10
21169;DHT22;10742;51.816;8.662;2022-12-20T16:25:27;14.90;95.20
21169;DHT22;10742;51.816;8.662;2022-12-20T16:28:32;14.90;95.10
21169;DHT22;10742;51.816;8.662;2022-12-20T16:31:36;14.80;95.10
21169;DHT22;10742;51.816;8.662;2022-12-20T16:34:39;14.80;95.20
21169;DHT22;10742;51.816;8.662;2022-12-20T16:37:42;14.80;95.20
21169;DHT22;10742;51.816;8.662;2022-12-20T16:40:45;14.70;95.20
21169;DHT22;10742;51.816;8.662;2022-12-20T16:43:48;14.70;95.30
21169;DHT22;10742;51.816;8.662;2022-12-20T16:46:51;14.70;95.30
21169;DHT22;10742;51.816;8.662;2022-12-20T16:49:54;14.60;95.40
21169;DHT22;10742;51.816;8.662;2022-12-20T16:52:56;14.70;95.50
21169;DHT22;10742;51.816;8.662;2022-12-20T16:55:59;14.60;95.50
21169;DHT22;10742;51.816;8.662;2022-12-20T16:59:22;14.60;95.60
21169;DHT22;10742;51.816;8.662;2022-12-20T17:02:28;14.60;95.70
21169;DHT22;10742;51.816;8.662;2022-12-20T17:05:34;14.60;95.70
21169;DHT22;10742;51.816;8.662;2022-12-20T17:08:41;14.50;95.70
21169;DHT22;10742;51.816;8.662;2022-12-20T17:11:53;14.50;95.70
21169;DHT22;10742;51.816;8.662;2022-12-20T17:14:56;14.50;95.80
21169;DHT22;10742;51.816;8.662;2022-12-20T17:17:59;14.50;95.80
21169;DHT22;10742;51.816;8.662;2022-12-20T17:21:12;14.50;95.90
21169;DHT22;10742;51.816;8.662;2022-12-20T17:24:21;14.40;96.00
21169;DHT22;10742;51.816;8.662;2022-12-20T17:27:24;14.50;95.90
21169;DHT22;10742;51.816;8.662;2022-12-20T17:30:27;14.50;95.90
21169;DHT22;10742;51.816;8.662;2022-12-20T17:33:30;14.50;96.10
21169;DHT22;10742;51.816;8.662;2022-12-20T17:36:33;14.40;96.10
21169;DHT22;10742;51.816;8.662;2022-12-20T17:39:39;14.50;96.20
21169;DHT22;10742;51.816;8.662;2022-12-20T17:42:43;14.40;96.10
21169;DHT22;10742;51.816;8.662;2022-12-20T17:45:46;14.40;96.00
21169;DHT22;10742;51.816;8.662;2022-12-20T17:48:49;14.50;96.00
21169;DHT22;10742;51.816;8.662;2022-12-20T17:51:53;14.50;95.90
21169;DHT22;10742;51.816;8.662;2022-12-20T17:54:57;14.50;95.80
21169;DHT22;10742;51.816;8.662;2022-12-20T17:58:00;14.40;95.70
21169;DHT22;10742;51.816;8.662;2022-12-20T18:01:03;14.40;95.70
21169;DHT22;10742;51.816;8.662;2022-12-20T18:04:08;14.30;95.60
21169;DHT22;10742;51.816;8.662;2022-12-20T18:07:12;14.30;95.60
21169;DHT22;10742;51.816;8.662;2022-12-20T18:10:15;14.30;95.50
21169;DHT22;10742;51.816;8.662;2022-12-20T18:13:18;14.20;95.40
21169;DHT22;10742;51.816;8.662;2022-12-20T18:16:24;14.10;95.40
21169;DHT22;10742;51.816;8.662;2022-12-20T18:19:27;14.10;95.40
21169;DHT22;10742;51.816;8.662;2022-12-20T18:22:32;14.10;95.30
21169;DHT22;10742;51.816;8.662;2022-12-20T18:25:35;14.00;95.30
21169;DHT22;10742;51.816;8.662;2022-12-20T18:28:40;13.90;95.30
21169;DHT22;10742;51.816;8.662;2022-12-20T18:31:44;13.90;95.30
21169;DHT22;10742;51.816;8.662;2022-12-20T18:34:49;13.80;95.20
21169;DHT22;10742;51.816;8.662;2022-12-20T18:37:53;13.80;95.20
21169;DHT22;10742;51.816;8.662;2022-12-20T18:40:59;13.80;95.30
21169;DHT22;10742;51.816;8.662;2022-12-20T18:44:05;13.70;95.20
21169;DHT22;10742;51.816;8.662;2022-12-20T18:47:09;13.70;95.30
21169;DHT22;10742;51.816;8.662;2022-12-20T18:50:12;13.60;95.20
21169;DHT22;10742;51.816;8.662;2022-12-20T18:53:16;13.60;95.30
21169;DHT22;10742;51.816;8.662;2022-12-20T18:56:24;13.60;95.40
21169;DHT22;10742;51.816;8.662;2022-12-20T18:59:28;13.50;95.40
21169;DHT22;10742;51.816;8.662;2022-12-20T19:02:31;13.50;95.40
21169;DHT22;10742;51.816;8.662;2022-12-20T19:05:34;13.50;95.40
21169;DHT22;10742;51.816;8.662;2022-12-20T19:08:37;13.50;95.40
21169;DHT22;10742;51.816;8.662;2022-12-20T19:11:41;13.50;95.50
21169;DHT22;10742;51.816;8.662;2022-12-20T19:14:44;13.40;95.50
21169;DHT22;10742;51.816;8.662;2022-12-20T19:17:48;13.40;95.50
21169;DHT22;10742;51.816;8.662;2022-12-20T19:20:53;13.40;95.50
21169;DHT22;10742;51.816;8.662;2022-12-20T19:23:58;13.40;95.50
21169;DHT22;10742;51.816;8.662;2022-12-20T19:27:02;13.40;95.50
21169;DHT22;10742;51.816;8.662;2022-12-20T19:30:08;13.40;95.50
21169;DHT22;10742;51.816;8.662;2022-12-20T19:33:11;13.40;95.50
21169;DHT22;10742;51.816;8.662;2022-12-20T19:36:18;13.40;95.50
21169;DHT22;10742;51.816;8.662;2022-12-20T19:39:24;13.40;95.50
21169;DHT22;10742;51.816;8.662;2022-12-20T19:42:26;13.40;95.50
21169;DHT22;10742;51.816;8.662;2022-12-20T19:45:29;13.40;95.50
21169;DHT22;10742;51.816;8.662;2022-12-20T19:48:33;13.30;95.50
21169;DHT22;10742;51.816;8.662;2022-12-20T19:51:36;13.30;95.50
21169;DHT22;10742;51.816;8.662;2022-12-20T19:54:40;13.30;95.60
21169;DHT22;10742;51.816;8.662;2022-12-20T19:57:48;13.30;95.60
21169;DHT22;10742;51.816;8.662;2022-12-20T20:00:51;13.30;95.60
21169;DHT22;10742;51.816;8.662;2022-12-20T20:03:55;13.30;95.70
21169;DHT22;10742;51.816;8.662;2022-12-20T20:06:58;13.30;95.70
21169;DHT22;10742;51.816;8.662;2022-12-20T20:10:01;13.30;95.70
21169;DHT22;10742;51.816;8.662;2022-12-20T20:13:04;13.30;95.70
21169;DHT22;10742;51.816;8.662;2022-12-20T20:16:09;13.30;95.70
21169;DHT22;10742;51.816;8.662;2022-12-20T20:19:12;13.30;95.70
21169;DHT22;10742;51.816;8.662;2022-12-20T20:22:19;13.30;95.70
21169;DHT22;10742;51.816;8.662;2022-12-20T20:25:24;13.30;95.70
21169;DHT22;10742;51.816;8.662;2022-12-20T20:28:28;13.30;95.80
21169;DHT22;10742;51.816;8.662;2022-12-20T20:31:33;13.30;95.80
21169;DHT22;10742;51.816;8.662;2022-12-20T20:34:36;13.30;95.80
21169;DHT22;10742;51.816;8.662;2022-12-20T20:37:38;13.30;95.80
21169;DHT22;10742;51.816;8.662;2022-12-20T20:40:41;13.30;95.80
21169;DHT22;10742;51.816;8.662;2022-12-20T20:43:43;13.30;95.80
21169;DHT22;10742;51.816;8.662;2022-12-20T20:46:46;13.30;95.80
21169;DHT22;10742;51.816;8.662;2022-12-20T20:49:48;13.30;95.90
21169;DHT22;10742;51.816;8.662;2022-12-20T20:52:53;13.30;95.90
21169;DHT22;10742;51.816;8.662;2022-12-20T20:55:56;13.30;96.00
21169;DHT22;10742;51.816;8.662;2022-12-20T20:58:59;13.40;96.00
21169;DHT22;10742;51.816;8.662;2022-12-20T21:02:04;13.30;96.00
21169;DHT22;10742;51.816;8.662;2022-12-20T21:05:08;13.40;96.00
21169;DHT22;10742;51.816;8.662;2022-12-20T21:08:30;13.30;96.00
21169;DHT22;10742;51.816;8.662;2022-12-20T21:11:34;13.40;96.00
21169;DHT22;10742;51.816;8.662;2022-12-20T21:14:38;13.40;96.10
21169;DHT22;10742;51.816;8.662;2022-12-20T21:18:00;13.40;96.10
21169;DHT22;10742;51.816;8.662;2022-12-20T21:21:07;13.40;96.10
21169;DHT22;10742;51.816;8.662;2022-12-20T21:24:10;13.40;96.10
21169;DHT22;10742;51.816;8.662;2022-12-20T21:27:13;13.40;96.00